Terminal Aerodrome Forecast
Issued by NWS

Home | Current Version | Previous Version | Text Only | Print | Product List | Glossary On
Versions: 1 2 3 4 5 6 7 8 9 10 11 12 13 14 15 16 17 18
000
FTUS42 KKEY 250100 AAC
TAFMTH
TAF AMD
KMTH 250100Z 2501/2524 28015G25KT P6SM VCSH SCT010 BKN020 BKN050
      TEMPO 2502/2504 29018G31KT 2SM +TSRA SCT010CB BKN015 OVC050
     FM250400 25015G24KT P6SM SCT015 BKN030
     FM251200 22012G18KT P6SM VCSH SCT015 BKN030=

USA.gov is the U.S. government's official web portal to all federal, state and local government web resources and services.